createdAt,value
2022-11-16T00:03:55.959Z,10.66
2022-11-16T00:09:18.651Z,10.61
2022-11-16T00:14:21.571Z,10.59
2022-11-16T00:19:24.255Z,10.58
2022-11-16T00:24:25.912Z,10.53
2022-11-16T00:29:27.742Z,10.59
2022-11-16T00:34:29.495Z,10.45
2022-11-16T00:39:31.250Z,10.48
2022-11-16T00:44:32.986Z,10.44
2022-11-16T00:49:34.667Z,10.41
2022-11-16T00:54:36.329Z,10.52
2022-11-16T00:59:37.952Z,10.33
2022-11-16T01:04:39.612Z,10.08
2022-11-16T01:09:41.249Z,10.01
2022-11-16T01:14:45.257Z,10.17
2022-11-16T01:19:46.888Z,10.28
2022-11-16T01:24:48.535Z,10.29
2022-11-16T01:29:50.182Z,10.21
2022-11-16T01:34:52.180Z,10.19
2022-11-16T01:39:54.223Z,10.10
2022-11-16T01:45:15.224Z,10.08
2022-11-16T01:50:18.407Z,10.24
2022-11-16T01:55:21.760Z,10.29
2022-11-16T02:00:23.598Z,10.33
2022-11-16T02:05:59.639Z,10.39
2022-11-16T02:11:01.238Z,10.52
2022-11-16T02:16:39.392Z,10.60
2022-11-16T02:21:52.154Z,10.63
2022-11-16T02:26:56.631Z,10.67
2022-11-16T02:32:15.222Z,10.72
2022-11-16T02:37:20.638Z,10.73
2022-11-16T02:42:29.938Z,10.67
2022-11-16T02:47:34.655Z,10.71
2022-11-16T02:52:37.820Z,10.82
2022-11-16T02:57:46.062Z,10.90
2022-11-16T03:03:10.224Z,10.89
2022-11-16T03:08:33.406Z,10.75
2022-11-16T03:13:37.414Z,10.59
2022-11-16T03:18:40.831Z,10.64
2022-11-16T03:23:43.984Z,10.71
2022-11-16T03:29:05.807Z,10.72
2022-11-16T03:34:16.270Z,10.60
2022-11-16T03:39:24.161Z,10.60
2022-11-16T03:44:26.975Z,10.59
2022-11-16T03:49:31.187Z,10.54
2022-11-16T03:54:32.794Z,10.47
2022-11-16T03:59:34.422Z,10.36
2022-11-16T04:04:54.538Z,10.42
2022-11-16T04:10:14.705Z,10.56
2022-11-16T04:15:34.794Z,10.65
2022-11-16T04:20:55.279Z,10.64
2022-11-16T04:25:57.640Z,10.58
2022-11-16T04:31:20.818Z,10.46
2022-11-16T04:36:41.570Z,10.58
2022-11-16T04:42:01.809Z,10.59
2022-11-16T04:47:06.746Z,10.60
2022-11-16T04:52:09.001Z,10.62
2022-11-16T04:57:10.703Z,10.69
2022-11-16T05:02:13.235Z,10.60
2022-11-16T05:07:24.320Z,10.59
2022-11-16T05:12:31.947Z,10.65
2022-11-16T05:17:41.015Z,10.69
2022-11-16T05:22:42.800Z,10.76
2022-11-16T05:27:44.455Z,10.77
2022-11-16T05:32:48.292Z,10.77
2022-11-16T05:37:50.021Z,10.78
2022-11-16T05:42:51.662Z,10.81
2022-11-16T05:47:55.412Z,10.83
2022-11-16T05:52:57.031Z,10.71
2022-11-16T05:57:59.790Z,10.75
2022-11-16T06:03:01.538Z,10.76
2022-11-16T06:08:05.752Z,10.52
2022-11-16T06:13:08.503Z,10.31
2022-11-16T06:18:15.206Z,10.12
2022-11-16T06:23:19.146Z,9.94
2022-11-16T06:28:28.196Z,9.73
2022-11-16T06:33:33.509Z,9.57
2022-11-16T06:38:41.073Z,9.43
2022-11-16T06:43:43.836Z,9.30
2022-11-16T06:48:45.601Z,9.20
2022-11-16T06:53:49.312Z,9.12
2022-11-16T06:58:53.549Z,9.01
2022-11-16T07:03:57.201Z,8.94
2022-11-16T07:09:09.744Z,8.82
2022-11-16T07:14:12.540Z,8.92
2022-11-16T07:19:15.537Z,8.93
2022-11-16T07:24:28.377Z,8.94
2022-11-16T07:29:32.192Z,9.00
2022-11-16T07:34:33.936Z,9.05
2022-11-16T07:39:35.734Z,9.08
2022-11-16T07:44:44.508Z,9.08
2022-11-16T07:49:48.996Z,9.15
2022-11-16T07:54:51.349Z,9.09
2022-11-16T07:59:58.320Z,9.16
2022-11-16T08:05:02.145Z,9.31
2022-11-16T08:10:10.080Z,9.41
2022-11-16T08:15:23.456Z,9.51
2022-11-16T08:20:25.474Z,9.58
2022-11-16T08:25:30.356Z,9.46
2022-11-16T08:30:38.645Z,9.50
2022-11-16T08:35:40.531Z,9.75
2022-11-16T08:40:42.454Z,9.81
2022-11-16T08:45:49.576Z,10.05
2022-11-16T08:51:16.077Z,10.14
2022-11-16T08:56:14.612Z,10.13
2022-11-16T09:01:23.436Z,10.22
2022-11-16T09:06:27.015Z,10.27
2022-11-16T09:11:30.012Z,10.23
2022-11-16T09:16:40.494Z,10.35
2022-11-16T09:21:50.523Z,10.39
2022-11-16T09:26:57.559Z,10.45
2022-11-16T09:31:59.451Z,10.50
2022-11-16T09:37:01.789Z,10.63
2022-11-16T09:42:25.645Z,10.70
2022-11-16T09:47:49.157Z,10.72
2022-11-16T09:52:56.462Z,11.07
2022-11-16T09:58:03.222Z,11.34
2022-11-16T10:03:12.390Z,11.17
2022-11-16T10:08:23.152Z,11.18
2022-11-16T10:14:06.144Z,11.12
2022-11-16T10:19:30.801Z,11.24
2022-11-16T10:24:57.826Z,11.12
2022-11-16T10:30:08.862Z,11.23
2022-11-16T10:42:11.808Z,11.11
2022-11-16T10:47:34.028Z,11.27
2022-11-16T10:52:37.373Z,11.47
2022-11-16T10:58:05.245Z,11.45
2022-11-16T11:03:12.363Z,11.53
2022-11-16T11:08:26.054Z,12.00
2022-11-16T11:13:28.011Z,12.26
2022-11-16T11:18:30.202Z,12.38
2022-11-16T11:24:10.560Z,12.50
2022-11-16T11:29:32.459Z,12.61
2022-11-16T11:34:44.897Z,12.52
2022-11-16T11:39:48.391Z,12.65
2022-11-16T11:44:59.331Z,12.34
2022-11-16T11:50:40.454Z,12.32
2022-11-16T11:55:42.385Z,12.61
2022-11-16T12:01:25.484Z,12.90
2022-11-16T12:06:45.021Z,12.98
2022-11-16T12:12:11.817Z,12.85
2022-11-16T12:24:00.434Z,12.73
2022-11-16T12:29:22.031Z,12.70
2022-11-16T12:34:44.085Z,12.84
2022-11-16T12:40:04.539Z,13.33
2022-11-16T12:45:31.986Z,13.32
2022-11-16T12:51:19.752Z,13.35
2022-11-16T12:56:44.560Z,13.57
2022-11-16T13:02:00.599Z,13.77
2022-11-16T13:07:17.128Z,13.40
2022-11-16T13:12:26.656Z,13.28
2022-11-16T13:17:37.136Z,13.32
2022-11-16T13:22:44.988Z,13.43
2022-11-16T13:28:06.189Z,13.36
2022-11-16T13:33:36.199Z,13.02
2022-11-16T13:38:52.737Z,12.92
2022-11-16T13:43:55.133Z,12.90
2022-11-16T13:48:56.860Z,12.76
2022-11-16T13:59:28.364Z,13.01
2022-11-16T14:04:38.898Z,13.19
2022-11-16T14:09:47.472Z,13.38
2022-11-16T14:15:15.073Z,13.56
2022-11-16T14:20:34.909Z,13.52
2022-11-16T14:25:42.698Z,13.33
2022-11-16T14:31:05.813Z,13.13
2022-11-16T14:36:09.753Z,12.90
2022-11-16T14:41:22.895Z,12.62
2022-11-16T14:46:36.307Z,12.41
2022-11-16T14:51:44.836Z,12.31
2022-11-16T14:57:00.287Z,12.28
2022-11-16T15:02:15.122Z,12.29
2022-11-16T15:07:18.474Z,12.19
2022-11-16T15:12:42.546Z,12.15
2022-11-16T15:18:07.702Z,12.15
2022-11-16T15:23:14.801Z,12.09
2022-11-16T15:28:20.677Z,12.00
2022-11-16T15:33:29.715Z,11.85
2022-11-16T15:38:32.926Z,11.67
2022-11-16T15:43:45.424Z,11.45
2022-11-16T15:48:52.558Z,11.26
2022-11-16T15:53:55.323Z,11.16
2022-11-16T15:59:01.381Z,11.00
2022-11-16T16:04:06.534Z,10.97
2022-11-16T16:09:18.385Z,10.99
2022-11-16T16:14:30.798Z,10.80
2022-11-16T16:19:42.629Z,10.73
2022-11-16T16:24:46.649Z,10.65
2022-11-16T16:29:50.069Z,10.52
2022-11-16T16:34:55.606Z,10.37
2022-11-16T16:39:58.480Z,10.21
2022-11-16T16:45:00.614Z,10.08
2022-11-16T16:50:05.870Z,10.00
2022-11-16T16:55:07.930Z,9.84
2022-11-16T17:00:17.968Z,9.77
2022-11-16T17:05:21.646Z,9.60
2022-11-16T17:10:25.519Z,9.48
2022-11-16T17:15:30.231Z,9.37
2022-11-16T17:20:33.063Z,9.25
2022-11-16T17:25:37.402Z,9.14
2022-11-16T17:30:42.280Z,8.95
2022-11-16T17:35:43.989Z,8.85
2022-11-16T17:40:46.685Z,8.74
2022-11-16T17:45:50.405Z,8.65
2022-11-16T17:50:57.242Z,8.59
2022-11-16T17:55:58.983Z,8.52
2022-11-16T18:01:00.842Z,8.46
2022-11-16T18:06:07.434Z,8.31
2022-11-16T18:11:31.988Z,8.19
2022-11-16T18:16:34.169Z,8.24
2022-11-16T18:21:42.183Z,8.30
2022-11-16T18:26:45.160Z,8.48
2022-11-16T18:31:49.947Z,8.46
2022-11-16T18:36:51.614Z,8.44
2022-11-16T18:41:54.985Z,8.47
2022-11-16T18:46:57.400Z,8.50
2022-11-16T18:51:59.084Z,8.67
2022-11-16T18:57:02.906Z,8.71
2022-11-16T19:02:07.244Z,8.68
2022-11-16T19:07:09.136Z,8.74
2022-11-16T19:12:10.842Z,8.83
2022-11-16T19:17:12.499Z,8.94
2022-11-16T19:22:15.202Z,9.10
2022-11-16T19:27:23.391Z,9.10
2022-11-16T19:32:26.084Z,9.05
2022-11-16T19:37:35.903Z,9.00
2022-11-16T19:42:40.722Z,8.96
2022-11-16T19:47:45.344Z,9.01
2022-11-16T19:52:57.242Z,8.98
2022-11-16T19:57:58.872Z,9.04
2022-11-16T20:03:00.622Z,8.93
2022-11-16T20:08:02.260Z,9.05
2022-11-16T20:13:04.039Z,9.13
2022-11-16T20:18:05.902Z,9.02
2022-11-16T20:23:07.543Z,9.02
2022-11-16T20:28:09.656Z,8.79
2022-11-16T20:33:11.368Z,8.59
2022-11-16T20:38:13.001Z,8.40
2022-11-16T20:43:14.803Z,8.33
2022-11-16T20:48:16.417Z,8.24
2022-11-16T20:53:18.063Z,8.26
2022-11-16T20:58:23.047Z,8.18
2022-11-16T21:03:24.811Z,7.91
2022-11-16T21:08:27.467Z,7.93
2022-11-16T21:13:47.822Z,8.03
2022-11-16T21:18:49.932Z,8.13
2022-11-16T21:23:51.945Z,8.22
2022-11-16T21:28:54.502Z,8.24
2022-11-16T21:33:56.985Z,8.29
2022-11-16T21:38:59.195Z,8.45
2022-11-16T21:44:00.797Z,8.51
2022-11-16T21:49:02.524Z,8.55
2022-11-16T21:54:04.747Z,8.66
2022-11-16T21:59:06.895Z,8.75
2022-11-16T22:04:27.061Z,8.62
2022-11-16T22:09:28.684Z,8.65
2022-11-16T22:14:30.358Z,8.76
2022-11-16T22:19:31.984Z,8.75
2022-11-16T22:24:33.620Z,8.76
2022-11-16T22:29:35.294Z,8.66
2022-11-16T22:34:37.030Z,8.71
2022-11-16T22:39:38.663Z,8.66
2022-11-16T22:44:40.306Z,8.60
2022-11-16T22:49:41.935Z,8.60
2022-11-16T22:54:43.565Z,8.68
2022-11-16T22:59:45.350Z,8.73
2022-11-16T23:04:46.964Z,8.92
2022-11-16T23:09:48.587Z,9.10
2022-11-16T23:15:08.856Z,9.23
2022-11-16T23:20:29.184Z,9.31
2022-11-16T23:25:49.645Z,9.33
2022-11-16T23:30:51.272Z,9.36
2022-11-16T23:35:52.882Z,9.45
2022-11-16T23:40:54.483Z,9.51
2022-11-16T23:45:56.090Z,9.56
2022-11-16T23:50:57.717Z,9.53
2022-11-16T23:56:05.719Z,9.56
